createdAt,value
2023-05-23T00:03:52.778Z,4177.1
2023-05-23T00:09:38.215Z,4179
2023-05-23T00:15:29.066Z,4179.6
2023-05-23T00:21:42.207Z,4174.4
2023-05-23T00:27:26.526Z,4175.6
2023-05-23T00:33:11.506Z,4176.1
2023-05-23T00:38:52.933Z,4172.8
2023-05-23T00:44:29.472Z,4177.3
2023-05-23T00:50:26.675Z,4171.1
2023-05-23T00:56:02.032Z,4175.8
2023-05-23T01:01:38.745Z,4175.1
2023-05-23T01:07:14.609Z,4173.3
2023-05-23T01:12:51.998Z,4173.8
2023-05-23T01:18:27.828Z,4174.4
2023-05-23T01:24:07.621Z,4174.1
2023-05-23T01:29:44.022Z,4173.1
2023-05-23T01:35:28.313Z,4173.4
2023-05-23T01:41:30.076Z,4171.9
2023-05-23T01:47:10.293Z,4172.4
2023-05-23T01:52:46.026Z,4171.8
2023-05-23T01:58:30.410Z,4172.8
2023-05-23T02:04:17.263Z,4172.8
2023-05-23T02:09:53.314Z,4169.2
2023-05-23T02:15:29.045Z,4170.2
2023-05-23T02:21:06.214Z,4168.1
2023-05-23T02:26:43.257Z,4172.1
2023-05-23T02:32:19.436Z,4168.2
2023-05-23T02:38:00.811Z,4169.9
2023-05-23T02:43:36.690Z,4167.6
2023-05-23T02:49:34.932Z,4165.1
2023-05-23T02:55:08.921Z,4167.4
2023-05-23T03:00:55.727Z,4169.6
2023-05-23T03:06:39.747Z,4167.2
2023-05-23T03:12:19.250Z,4167.9
2023-05-23T03:17:57.653Z,4166.4
2023-05-23T03:23:52.947Z,4166.2
2023-05-23T03:29:29.959Z,4166.1
2023-05-23T03:35:06.205Z,4167.4
2023-05-23T03:40:41.432Z,4164.7
2023-05-23T03:46:22.667Z,4164.7
2023-05-23T03:52:19.444Z,4161.5
2023-05-23T03:57:53.438Z,4163.7
2023-05-23T04:03:30.683Z,4163.2
2023-05-23T04:09:13.418Z,4167.1
2023-05-23T04:14:51.841Z,4163.7
2023-05-23T04:20:32.026Z,4164.4
2023-05-23T04:26:36.008Z,4164.2
2023-05-23T04:32:47.325Z,4162.4
2023-05-23T04:38:29.452Z,4161.4
2023-05-23T04:44:11.005Z,4162.4
2023-05-23T04:50:08.933Z,4156.2
2023-05-23T04:55:46.084Z,4161
2023-05-23T05:01:29.110Z,4159.2
2023-05-23T05:07:06.227Z,4160.9
2023-05-23T05:12:42.145Z,4160.5
2023-05-23T05:18:21.761Z,4159.9
2023-05-23T05:23:58.264Z,4160.2
2023-05-23T05:29:36.634Z,4159.2
2023-05-23T05:35:30.166Z,4157.5
2023-05-23T05:41:11.103Z,4159.4
2023-05-23T05:46:57.136Z,4158.9
2023-05-23T05:52:32.484Z,4155.7
2023-05-23T05:58:21.667Z,4155.7
2023-05-23T06:04:05.298Z,4156
2023-05-23T06:09:52.447Z,4154.8
2023-05-23T06:15:27.833Z,4158
2023-05-23T06:21:06.546Z,4161.9
2023-05-23T06:26:47.874Z,4166.6
2023-05-23T06:32:23.791Z,4165.9
2023-05-23T06:38:00.029Z,4169.9
2023-05-23T06:43:36.422Z,4171.6
2023-05-23T06:49:34.338Z,4167.7
2023-05-23T06:55:08.330Z,4170.6
2023-05-23T07:00:45.429Z,4170.2
2023-05-23T07:06:22.254Z,4165.6
2023-05-23T07:11:58.836Z,4171.9
2023-05-23T07:17:52.645Z,4175.3
2023-05-23T07:23:53.374Z,4170.1
2023-05-23T07:30:15.251Z,4170.6
2023-05-23T07:36:18.020Z,4182
2023-05-23T07:41:54.769Z,4174.4
2023-05-23T07:47:30.886Z,4168.2
2023-05-23T07:53:12.129Z,4173.9
2023-05-23T07:58:52.242Z,4174.3
2023-05-23T08:04:28.350Z,4176.4
2023-05-23T08:10:06.189Z,4178
2023-05-23T08:15:42.952Z,4176.6
2023-05-23T08:21:20.765Z,4174.4
2023-05-23T08:27:43.211Z,4178.1
2023-05-23T08:33:21.281Z,4176.1
2023-05-23T08:38:58.241Z,4182.1
2023-05-23T08:44:57.261Z,4187.8
2023-05-23T08:50:34.512Z,4214.8
2023-05-23T08:56:21.515Z,4198.1
2023-05-23T09:01:59.584Z,4204.9
2023-05-23T09:07:55.641Z,4211.1
2023-05-23T09:13:37.363Z,4202.9
2023-05-23T09:19:18.208Z,4213.6
2023-05-23T09:24:54.010Z,4211.8
2023-05-23T09:30:30.686Z,4205.3
2023-05-23T09:36:08.801Z,4211
2023-05-23T09:41:44.655Z,4209.4
2023-05-23T09:47:40.759Z,4210.4
2023-05-23T09:53:27.556Z,4208.3
2023-05-23T09:59:04.745Z,4209.1
2023-05-23T10:04:49.836Z,4214.6
2023-05-23T10:11:01.902Z,4216.3
2023-05-23T10:16:57.744Z,4215.5
2023-05-23T10:22:41.677Z,4216.6
2023-05-23T10:28:38.813Z,4219.2
2023-05-23T10:34:15.108Z,4214.5
2023-05-23T10:39:52.061Z,4213.1
2023-05-23T10:45:36.174Z,4212.5
2023-05-23T10:51:33.638Z,4221
2023-05-23T10:57:08.185Z,4225.2
2023-05-23T11:02:45.540Z,4221.3
2023-05-23T11:08:20.977Z,4215.1
2023-05-23T11:13:56.625Z,4214.1
2023-05-23T11:19:33.618Z,4222.3
2023-05-23T11:25:34.734Z,4222
2023-05-23T11:31:44.113Z,4217.3
2023-05-23T11:37:20.689Z,4222.8
2023-05-23T11:43:04.805Z,4226.5
2023-05-23T11:48:41.001Z,4226.4
2023-05-23T11:54:17.098Z,4223.3
2023-05-23T12:00:35.078Z,4219.2
2023-05-23T12:06:23.989Z,4229.9
2023-05-23T12:11:59.671Z,4217
2023-05-23T12:17:41.206Z,4229.7
2023-05-23T12:23:17.910Z,4222.3
2023-05-23T12:28:58.839Z,4222
2023-05-23T12:34:53.872Z,4222.7
2023-05-23T12:40:41.416Z,4221.7
2023-05-23T12:46:17.643Z,4226.2
2023-05-23T12:51:53.879Z,4224.9
2023-05-23T12:57:38.482Z,4219.8
2023-05-23T13:03:17.590Z,4219.3
2023-05-23T13:09:13.336Z,4229.2
2023-05-23T13:14:49.440Z,4229.2
2023-05-23T13:20:26.537Z,4218.7
2023-05-23T13:26:02.368Z,4232.1
2023-05-23T13:31:39.059Z,4223.3
2023-05-23T13:37:16.200Z,4229.5
2023-05-23T13:42:56.222Z,4225.5
2023-05-23T13:48:32.977Z,4217.8
2023-05-23T13:54:31.324Z,4224.5
2023-05-23T14:00:10.490Z,4232.4
2023-05-23T14:05:47.773Z,4229.4
2023-05-23T14:12:04.179Z,4221.5
2023-05-23T14:17:46.943Z,4224.5
2023-05-23T14:23:36.399Z,4233.7
2023-05-23T14:29:15.362Z,4218.2
2023-05-23T14:35:03.876Z,4220.7
2023-05-23T14:40:44.721Z,4231.7
2023-05-23T14:46:20.828Z,4228
2023-05-23T14:52:02.695Z,4221
2023-05-23T14:57:45.279Z,4219.5
2023-05-23T15:03:21.043Z,4215.5
2023-05-23T15:08:55.933Z,4214.1
2023-05-23T15:14:31.981Z,4214.3
2023-05-23T15:20:10.411Z,4213.5
2023-05-23T15:25:52.267Z,4212.1
2023-05-23T15:31:37.190Z,4211.8
2023-05-23T15:37:22.218Z,4211.5
2023-05-23T15:43:27.904Z,4208.4
2023-05-23T15:49:42.904Z,4209.8
2023-05-23T15:55:31.399Z,4208.4
2023-05-23T16:01:11.305Z,4206.6
2023-05-23T16:06:48.120Z,4210.4
2023-05-23T16:12:45.092Z,4208.4
2023-05-23T16:18:25.831Z,4210.6
2023-05-23T16:24:04.691Z,4209.1
2023-05-23T16:30:05.439Z,4212.5
2023-05-23T16:35:43.767Z,4213.8
2023-05-23T16:41:19.736Z,4210.3
2023-05-23T16:47:23.360Z,4210.4
2023-05-23T16:53:10.908Z,4211.1
2023-05-23T16:59:02.809Z,4215.6
2023-05-23T17:05:00.053Z,4215.1
2023-05-23T17:10:45.156Z,4213
2023-05-23T17:16:37.598Z,4213.5
2023-05-23T17:22:13.671Z,4208.4
2023-05-23T17:27:49.489Z,4207.9
2023-05-23T17:33:25.234Z,4215.3
2023-05-23T17:39:09.773Z,4212.5
2023-05-23T17:45:04.468Z,4216.1
2023-05-23T17:50:41.271Z,4207.3
2023-05-23T17:56:21.181Z,4211.1
2023-05-23T18:01:57.288Z,4217.1
2023-05-23T18:07:33.069Z,4212.3
2023-05-23T18:13:25.608Z,4206.8
2023-05-23T18:19:25.182Z,4211.1
2023-05-23T18:25:08.406Z,4208.6
2023-05-23T18:31:06.507Z,4205.8
2023-05-23T18:37:24.689Z,4205.6
2023-05-23T18:43:21.021Z,4202.6
2023-05-23T18:48:56.103Z,4201.4
2023-05-23T18:54:38.080Z,4204.3
2023-05-23T19:00:14.371Z,4201.7
2023-05-23T19:05:56.110Z,4201.6
2023-05-23T19:11:41.612Z,4201.2
2023-05-23T19:17:17.381Z,4200.7
2023-05-23T19:22:54.798Z,4201.7
2023-05-23T19:28:32.155Z,4201.1
2023-05-23T19:34:07.592Z,4201.1
2023-05-23T19:39:43.948Z,4200.6
2023-05-23T19:45:32.123Z,4200.6
2023-05-23T19:51:38.655Z,4198.6
2023-05-23T19:58:08.636Z,4196.7
2023-05-23T20:03:48.206Z,4198.6
2023-05-23T20:09:23.593Z,4199.1
2023-05-23T20:15:05.406Z,4193.9
2023-05-23T20:20:44.072Z,4197.7
2023-05-23T20:26:19.882Z,4198.1
2023-05-23T20:31:55.486Z,4196.5
2023-05-23T20:37:31.122Z,4196.7
2023-05-23T20:43:14.248Z,4196.4
2023-05-23T20:48:58.379Z,4195.5
2023-05-23T20:54:34.416Z,4195.4
2023-05-23T21:00:19.006Z,4193.9
2023-05-23T21:05:56.374Z,4195
